sensor_id;sensor_type;location;lat;lon;timestamp;temperature;humidity
52471;DHT22;38382;53.160;7.026;2023-02-21T00:01:41;9.30;99.90
52471;DHT22;38382;53.160;7.026;2023-02-21T00:04:25;9.30;99.90
52471;DHT22;38382;53.160;7.026;2023-02-21T00:07:09;9.30;99.90
52471;DHT22;38382;53.160;7.026;2023-02-21T00:09:54;9.30;99.90
52471;DHT22;38382;53.160;7.026;2023-02-21T00:12:38;9.30;99.90
52471;DHT22;38382;53.160;7.026;2023-02-21T00:15:22;9.40;99.90
52471;DHT22;38382;53.160;7.026;2023-02-21T00:18:06;9.40;99.90
52471;DHT22;38382;53.160;7.026;2023-02-21T00:20:51;9.40;99.90
52471;DHT22;38382;53.160;7.026;2023-02-21T00:23:35;9.30;99.90
52471;DHT22;38382;53.160;7.026;2023-02-21T00:26:20;9.40;99.90
52471;DHT22;38382;53.160;7.026;2023-02-21T00:29:05;9.40;99.90
52471;DHT22;38382;53.160;7.026;2023-02-21T00:31:49;9.30;99.90
52471;DHT22;38382;53.160;7.026;2023-02-21T00:34:34;9.30;99.90
52471;DHT22;38382;53.160;7.026;2023-02-21T00:37:18;9.30;99.90
52471;DHT22;38382;53.160;7.026;2023-02-21T00:40:03;9.30;99.90
52471;DHT22;38382;53.160;7.026;2023-02-21T00:42:47;9.30;99.90
52471;DHT22;38382;53.160;7.026;2023-02-21T00:45:31;9.30;99.90
52471;DHT22;38382;53.160;7.026;2023-02-21T00:48:20;9.30;99.90
52471;DHT22;38382;53.160;7.026;2023-02-21T00:51:04;9.30;99.90
52471;DHT22;38382;53.160;7.026;2023-02-21T00:53:48;9.30;99.90
52471;DHT22;38382;53.160;7.026;2023-02-21T00:56:33;9.40;99.90
52471;DHT22;38382;53.160;7.026;2023-02-21T00:59:17;9.40;99.90
52471;DHT22;38382;53.160;7.026;2023-02-21T01:02:01;9.30;99.90
52471;DHT22;38382;53.160;7.026;2023-02-21T01:04:46;9.30;99.90
52471;DHT22;38382;53.160;7.026;2023-02-21T01:07:30;9.30;99.90
52471;DHT22;38382;53.160;7.026;2023-02-21T01:10:15;9.30;99.90
52471;DHT22;38382;53.160;7.026;2023-02-21T01:12:59;9.30;99.90
52471;DHT22;38382;53.160;7.026;2023-02-21T01:15:43;9.30;99.90
52471;DHT22;38382;53.160;7.026;2023-02-21T01:18:28;9.30;99.90
52471;DHT22;38382;53.160;7.026;2023-02-21T01:21:16;9.40;99.90
52471;DHT22;38382;53.160;7.026;2023-02-21T01:24:02;9.40;99.90
52471;DHT22;38382;53.160;7.026;2023-02-21T01:26:47;9.40;99.90
52471;DHT22;38382;53.160;7.026;2023-02-21T01:29:31;9.40;99.90
52471;DHT22;38382;53.160;7.026;2023-02-21T01:32:15;9.40;99.90
52471;DHT22;38382;53.160;7.026;2023-02-21T01:34:59;9.40;99.90
52471;DHT22;38382;53.160;7.026;2023-02-21T01:37:44;9.40;99.90
52471;DHT22;38382;53.160;7.026;2023-02-21T01:40:28;9.40;99.90
52471;DHT22;38382;53.160;7.026;2023-02-21T01:43:18;9.40;99.90
52471;DHT22;38382;53.160;7.026;2023-02-21T01:46:03;9.40;99.90
52471;DHT22;38382;53.160;7.026;2023-02-21T01:48:48;9.40;99.90
52471;DHT22;38382;53.160;7.026;2023-02-21T01:51:37;9.40;99.90
52471;DHT22;38382;53.160;7.026;2023-02-21T01:54:25;9.40;99.90
52471;DHT22;38382;53.160;7.026;2023-02-21T01:57:12;9.40;99.90
52471;DHT22;38382;53.160;7.026;2023-02-21T01:59:58;9.40;99.90
52471;DHT22;38382;53.160;7.026;2023-02-21T02:03:02;9.40;99.90
52471;DHT22;38382;53.160;7.026;2023-02-21T02:05:49;9.30;99.90
52471;DHT22;38382;53.160;7.026;2023-02-21T02:08:35;9.30;99.90
52471;DHT22;38382;53.160;7.026;2023-02-21T02:11:22;9.30;99.90
52471;DHT22;38382;53.160;7.026;2023-02-21T02:16:58;9.20;99.90
52471;DHT22;38382;53.160;7.026;2023-02-21T02:22:30;9.10;99.90
52471;DHT22;38382;53.160;7.026;2023-02-21T02:28:03;9.00;99.90
52471;DHT22;38382;53.160;7.026;2023-02-21T02:33:49;9.00;99.90
52471;DHT22;38382;53.160;7.026;2023-02-21T02:36:20;9.00;99.90
52471;DHT22;38382;53.160;7.026;2023-02-21T02:39:04;9.00;99.90
52471;DHT22;38382;53.160;7.026;2023-02-21T02:44:33;9.00;99.90
52471;DHT22;38382;53.160;7.026;2023-02-21T02:47:03;9.00;99.90
52471;DHT22;38382;53.160;7.026;2023-02-21T02:49:32;8.90;99.90
52471;DHT22;38382;53.160;7.026;2023-02-21T02:52:05;9.00;99.90
52471;DHT22;38382;53.160;7.026;2023-02-21T02:54:31;9.00;99.90
52471;DHT22;38382;53.160;7.026;2023-02-21T02:56:58;9.00;99.90
52471;DHT22;38382;53.160;7.026;2023-02-21T02:59:26;9.00;99.90
52471;DHT22;38382;53.160;7.026;2023-02-21T03:02:17;9.00;99.90
52471;DHT22;38382;53.160;7.026;2023-02-21T03:07:57;9.10;99.90
52471;DHT22;38382;53.160;7.026;2023-02-21T03:13:17;9.10;99.90
52471;DHT22;38382;53.160;7.026;2023-02-21T03:15:52;9.10;99.90
52471;DHT22;38382;53.160;7.026;2023-02-21T03:18:35;9.10;99.90
52471;DHT22;38382;53.160;7.026;2023-02-21T03:21:06;9.00;99.90
52471;DHT22;38382;53.160;7.026;2023-02-21T03:23:34;9.00;99.90
52471;DHT22;38382;53.160;7.026;2023-02-21T03:26:04;9.10;99.90
52471;DHT22;38382;53.160;7.026;2023-02-21T03:28:31;9.10;99.90
52471;DHT22;38382;53.160;7.026;2023-02-21T03:30:59;9.00;99.90
52471;DHT22;38382;53.160;7.026;2023-02-21T03:33:27;9.10;99.90
52471;DHT22;38382;53.160;7.026;2023-02-21T03:35:53;9.00;99.90
52471;DHT22;38382;53.160;7.026;2023-02-21T03:38:19;9.10;99.90
52471;DHT22;38382;53.160;7.026;2023-02-21T03:40:44;9.10;99.90
52471;DHT22;38382;53.160;7.026;2023-02-21T03:43:10;9.00;99.90
52471;DHT22;38382;53.160;7.026;2023-02-21T03:45:36;9.10;99.90
52471;DHT22;38382;53.160;7.026;2023-02-21T03:48:02;9.10;99.90
52471;DHT22;38382;53.160;7.026;2023-02-21T03:50:28;9.10;99.90
52471;DHT22;38382;53.160;7.026;2023-02-21T03:52:54;9.10;99.90
52471;DHT22;38382;53.160;7.026;2023-02-21T03:55:20;9.10;99.90
52471;DHT22;38382;53.160;7.026;2023-02-21T03:57:46;9.20;99.90
52471;DHT22;38382;53.160;7.026;2023-02-21T04:00:13;9.10;99.90
52471;DHT22;38382;53.160;7.026;2023-02-21T04:02:39;9.10;99.90
52471;DHT22;38382;53.160;7.026;2023-02-21T04:05:05;9.10;99.90
52471;DHT22;38382;53.160;7.026;2023-02-21T04:07:31;9.10;99.90
52471;DHT22;38382;53.160;7.026;2023-02-21T04:09:56;9.10;99.90
52471;DHT22;38382;53.160;7.026;2023-02-21T04:12:23;9.20;99.90
52471;DHT22;38382;53.160;7.026;2023-02-21T04:14:49;9.10;99.90
52471;DHT22;38382;53.160;7.026;2023-02-21T04:17:17;9.10;99.90
52471;DHT22;38382;53.160;7.026;2023-02-21T04:19:42;9.10;99.90
52471;DHT22;38382;53.160;7.026;2023-02-21T04:22:08;9.10;99.90
52471;DHT22;38382;53.160;7.026;2023-02-21T04:24:34;9.10;99.90
52471;DHT22;38382;53.160;7.026;2023-02-21T04:27:00;9.10;99.90
52471;DHT22;38382;53.160;7.026;2023-02-21T04:29:26;9.10;99.90
52471;DHT22;38382;53.160;7.026;2023-02-21T04:31:52;9.10;99.90
52471;DHT22;38382;53.160;7.026;2023-02-21T04:34:18;9.10;99.90
52471;DHT22;38382;53.160;7.026;2023-02-21T04:36:44;9.10;99.90
52471;DHT22;38382;53.160;7.026;2023-02-21T04:39:10;9.10;99.90
52471;DHT22;38382;53.160;7.026;2023-02-21T04:41:36;9.10;99.90
52471;DHT22;38382;53.160;7.026;2023-02-21T04:44:01;9.10;99.90
52471;DHT22;38382;53.160;7.026;2023-02-21T04:46:27;9.10;99.90
52471;DHT22;38382;53.160;7.026;2023-02-21T04:48:53;9.10;99.90
52471;DHT22;38382;53.160;7.026;2023-02-21T04:51:21;9.10;99.90
52471;DHT22;38382;53.160;7.026;2023-02-21T04:53:48;9.10;99.90
52471;DHT22;38382;53.160;7.026;2023-02-21T04:56:17;9.00;99.90
52471;DHT22;38382;53.160;7.026;2023-02-21T04:58:43;9.10;99.90
52471;DHT22;38382;53.160;7.026;2023-02-21T05:01:10;9.10;99.90
52471;DHT22;38382;53.160;7.026;2023-02-21T05:03:36;9.00;99.90
52471;DHT22;38382;53.160;7.026;2023-02-21T05:06:02;9.10;99.90
52471;DHT22;38382;53.160;7.026;2023-02-21T05:08:28;9.10;99.90
52471;DHT22;38382;53.160;7.026;2023-02-21T05:10:54;9.10;99.90
52471;DHT22;38382;53.160;7.026;2023-02-21T05:13:20;9.00;99.90
52471;DHT22;38382;53.160;7.026;2023-02-21T05:15:47;9.00;99.90
52471;DHT22;38382;53.160;7.026;2023-02-21T05:18:14;9.00;99.90
52471;DHT22;38382;53.160;7.026;2023-02-21T05:20:51;9.00;99.90
52471;DHT22;38382;53.160;7.026;2023-02-21T05:23:17;9.00;99.90
52471;DHT22;38382;53.160;7.026;2023-02-21T05:26:12;9.00;99.90
52471;DHT22;38382;53.160;7.026;2023-02-21T05:28:39;9.00;99.90
52471;DHT22;38382;53.160;7.026;2023-02-21T05:31:06;9.00;99.90
52471;DHT22;38382;53.160;7.026;2023-02-21T05:33:32;9.00;99.90
52471;DHT22;38382;53.160;7.026;2023-02-21T05:35:57;9.00;99.90
52471;DHT22;38382;53.160;7.026;2023-02-21T05:38:24;9.00;99.90
52471;DHT22;38382;53.160;7.026;2023-02-21T05:40:51;9.00;99.90
52471;DHT22;38382;53.160;7.026;2023-02-21T05:43:17;9.00;99.90
52471;DHT22;38382;53.160;7.026;2023-02-21T05:45:42;9.00;99.90
52471;DHT22;38382;53.160;7.026;2023-02-21T05:48:08;9.00;99.90
52471;DHT22;38382;53.160;7.026;2023-02-21T05:50:34;9.00;99.90
52471;DHT22;38382;53.160;7.026;2023-02-21T05:53:00;9.00;99.90
52471;DHT22;38382;53.160;7.026;2023-02-21T05:55:26;9.00;99.90
52471;DHT22;38382;53.160;7.026;2023-02-21T05:57:53;9.00;99.90
52471;DHT22;38382;53.160;7.026;2023-02-21T06:00:24;9.10;99.90
52471;DHT22;38382;53.160;7.026;2023-02-21T06:02:51;9.00;99.90
52471;DHT22;38382;53.160;7.026;2023-02-21T06:05:21;9.00;99.90
52471;DHT22;38382;53.160;7.026;2023-02-21T06:07:47;9.00;99.90
52471;DHT22;38382;53.160;7.026;2023-02-21T06:10:14;9.00;99.90
52471;DHT22;38382;53.160;7.026;2023-02-21T06:12:40;9.00;99.90
52471;DHT22;38382;53.160;7.026;2023-02-21T06:15:07;9.00;99.90
52471;DHT22;38382;53.160;7.026;2023-02-21T06:17:35;9.00;99.90
52471;DHT22;38382;53.160;7.026;2023-02-21T06:20:02;9.00;99.90
52471;DHT22;38382;53.160;7.026;2023-02-21T06:22:28;9.00;99.90
52471;DHT22;38382;53.160;7.026;2023-02-21T06:24:53;9.00;99.90
52471;DHT22;38382;53.160;7.026;2023-02-21T06:27:19;9.00;99.90
52471;DHT22;38382;53.160;7.026;2023-02-21T06:29:45;9.00;99.90
52471;DHT22;38382;53.160;7.026;2023-02-21T06:32:11;9.00;99.90
52471;DHT22;38382;53.160;7.026;2023-02-21T06:34:36;9.00;99.90
52471;DHT22;38382;53.160;7.026;2023-02-21T06:37:02;9.00;99.90
52471;DHT22;38382;53.160;7.026;2023-02-21T06:39:28;8.90;99.90
52471;DHT22;38382;53.160;7.026;2023-02-21T06:41:54;9.00;99.90
52471;DHT22;38382;53.160;7.026;2023-02-21T06:44:20;9.00;99.90
52471;DHT22;38382;53.160;7.026;2023-02-21T06:46:47;8.90;99.90
52471;DHT22;38382;53.160;7.026;2023-02-21T06:49:15;8.90;99.90
52471;DHT22;38382;53.160;7.026;2023-02-21T06:51:41;9.00;99.90
52471;DHT22;38382;53.160;7.026;2023-02-21T06:54:07;9.00;99.90
52471;DHT22;38382;53.160;7.026;2023-02-21T06:56:33;9.00;99.90
52471;DHT22;38382;53.160;7.026;2023-02-21T06:58:59;8.90;99.90
52471;DHT22;38382;53.160;7.026;2023-02-21T07:01:26;9.00;99.90
52471;DHT22;38382;53.160;7.026;2023-02-21T07:03:53;8.90;99.90
52471;DHT22;38382;53.160;7.026;2023-02-21T07:06:20;9.00;99.90
52471;DHT22;38382;53.160;7.026;2023-02-21T07:08:46;9.00;99.90
52471;DHT22;38382;53.160;7.026;2023-02-21T07:11:12;9.00;99.90
52471;DHT22;38382;53.160;7.026;2023-02-21T07:13:38;9.00;99.90
52471;DHT22;38382;53.160;7.026;2023-02-21T07:16:04;9.00;99.90
52471;DHT22;38382;53.160;7.026;2023-02-21T07:18:30;9.00;99.90
52471;DHT22;38382;53.160;7.026;2023-02-21T07:20:56;9.00;99.90
52471;DHT22;38382;53.160;7.026;2023-02-21T07:23:22;9.00;99.90
52471;DHT22;38382;53.160;7.026;2023-02-21T07:25:48;8.90;99.90
52471;DHT22;38382;53.160;7.026;2023-02-21T07:28:14;9.00;99.90
52471;DHT22;38382;53.160;7.026;2023-02-21T07:30:40;9.00;99.90
52471;DHT22;38382;53.160;7.026;2023-02-21T07:33:06;9.00;99.90
52471;DHT22;38382;53.160;7.026;2023-02-21T07:35:31;9.00;99.90
52471;DHT22;38382;53.160;7.026;2023-02-21T07:37:57;9.00;99.90
52471;DHT22;38382;53.160;7.026;2023-02-21T07:40:23;9.00;99.90
52471;DHT22;38382;53.160;7.026;2023-02-21T07:42:49;9.00;99.90
52471;DHT22;38382;53.160;7.026;2023-02-21T07:45:15;9.00;99.90
52471;DHT22;38382;53.160;7.026;2023-02-21T07:47:41;9.00;99.90
52471;DHT22;38382;53.160;7.026;2023-02-21T07:50:09;9.00;99.90
52471;DHT22;38382;53.160;7.026;2023-02-21T07:52:34;9.00;99.90
52471;DHT22;38382;53.160;7.026;2023-02-21T07:55:00;9.10;99.90
52471;DHT22;38382;53.160;7.026;2023-02-21T07:57:26;9.10;99.90
52471;DHT22;38382;53.160;7.026;2023-02-21T07:59:52;9.10;99.90
52471;DHT22;38382;53.160;7.026;2023-02-21T08:02:17;9.10;99.90
52471;DHT22;38382;53.160;7.026;2023-02-21T08:04:43;9.10;99.90
52471;DHT22;38382;53.160;7.026;2023-02-21T08:07:09;9.10;99.90
52471;DHT22;38382;53.160;7.026;2023-02-21T08:09:35;9.20;99.90
52471;DHT22;38382;53.160;7.026;2023-02-21T08:12:02;9.20;99.90
52471;DHT22;38382;53.160;7.026;2023-02-21T08:14:28;9.20;99.90
52471;DHT22;38382;53.160;7.026;2023-02-21T08:16:54;9.20;99.90
52471;DHT22;38382;53.160;7.026;2023-02-21T08:19:20;9.20;99.90
52471;DHT22;38382;53.160;7.026;2023-02-21T08:21:47;9.30;99.90
52471;DHT22;38382;53.160;7.026;2023-02-21T08:24:14;9.30;99.90
52471;DHT22;38382;53.160;7.026;2023-02-21T08:26:40;9.30;99.90
52471;DHT22;38382;53.160;7.026;2023-02-21T08:29:12;9.30;99.90
52471;DHT22;38382;53.160;7.026;2023-02-21T08:31:39;9.40;99.90
52471;DHT22;38382;53.160;7.026;2023-02-21T08:34:06;9.40;99.90
52471;DHT22;38382;53.160;7.026;2023-02-21T08:36:34;9.50;99.90
52471;DHT22;38382;53.160;7.026;2023-02-21T08:39:00;9.50;99.90
52471;DHT22;38382;53.160;7.026;2023-02-21T08:41:37;9.60;99.90
52471;DHT22;38382;53.160;7.026;2023-02-21T08:44:04;9.70;99.90
52471;DHT22;38382;53.160;7.026;2023-02-21T08:46:30;9.60;99.90
52471;DHT22;38382;53.160;7.026;2023-02-21T08:48:56;9.70;99.90
52471;DHT22;38382;53.160;7.026;2023-02-21T08:51:28;9.70;99.90
52471;DHT22;38382;53.160;7.026;2023-02-21T08:53:58;9.70;99.90
52471;DHT22;38382;53.160;7.026;2023-02-21T08:56:25;9.80;99.90
52471;DHT22;38382;53.160;7.026;2023-02-21T08:58:53;9.80;99.90
52471;DHT22;38382;53.160;7.026;2023-02-21T09:01:20;9.80;99.90
52471;DHT22;38382;53.160;7.026;2023-02-21T09:03:46;9.90;99.90
52471;DHT22;38382;53.160;7.026;2023-02-21T09:06:12;9.90;99.90
52471;DHT22;38382;53.160;7.026;2023-02-21T09:08:38;9.90;99.90
52471;DHT22;38382;53.160;7.026;2023-02-21T09:11:08;9.90;99.90
52471;DHT22;38382;53.160;7.026;2023-02-21T09:13:34;9.90;99.90
52471;DHT22;38382;53.160;7.026;2023-02-21T09:16:02;9.90;99.90
52471;DHT22;38382;53.160;7.026;2023-02-21T09:18:28;9.90;99.90
52471;DHT22;38382;53.160;7.026;2023-02-21T09:20:54;9.90;99.90
52471;DHT22;38382;53.160;7.026;2023-02-21T09:23:23;9.90;99.90
52471;DHT22;38382;53.160;7.026;2023-02-21T09:25:50;9.90;99.90
52471;DHT22;38382;53.160;7.026;2023-02-21T09:28:16;10.00;99.90
52471;DHT22;38382;53.160;7.026;2023-02-21T09:30:42;10.00;99.90
52471;DHT22;38382;53.160;7.026;2023-02-21T09:33:09;10.00;99.90
52471;DHT22;38382;53.160;7.026;2023-02-21T09:35:35;10.10;99.90
52471;DHT22;38382;53.160;7.026;2023-02-21T09:38:02;10.10;99.90
52471;DHT22;38382;53.160;7.026;2023-02-21T09:40:49;10.10;99.90
52471;DHT22;38382;53.160;7.026;2023-02-21T09:43:28;10.10;99.90
52471;DHT22;38382;53.160;7.026;2023-02-21T09:46:00;10.10;99.90
52471;DHT22;38382;53.160;7.026;2023-02-21T09:48:27;10.20;99.90
52471;DHT22;38382;53.160;7.026;2023-02-21T09:50:57;10.20;99.90
52471;DHT22;38382;53.160;7.026;2023-02-21T09:53:31;10.20;99.90
52471;DHT22;38382;53.160;7.026;2023-02-21T09:56:11;10.30;99.90
52471;DHT22;38382;53.160;7.026;2023-02-21T09:58:42;10.30;99.90
52471;DHT22;38382;53.160;7.026;2023-02-21T10:04:39;10.20;99.90
52471;DHT22;38382;53.160;7.026;2023-02-21T10:10:08;10.30;99.90
52471;DHT22;38382;53.160;7.026;2023-02-21T10:15:43;10.30;99.90
52471;DHT22;38382;53.160;7.026;2023-02-21T10:21:37;10.50;99.90
52471;DHT22;38382;53.160;7.026;2023-02-21T10:24:12;10.50;99.90
52471;DHT22;38382;53.160;7.026;2023-02-21T10:26:40;10.60;99.90
52471;DHT22;38382;53.160;7.026;2023-02-21T10:29:23;10.60;99.90
52471;DHT22;38382;53.160;7.026;2023-02-21T10:31:54;10.70;99.90
52471;DHT22;38382;53.160;7.026;2023-02-21T10:34:26;10.70;99.90
52471;DHT22;38382;53.160;7.026;2023-02-21T10:36:59;10.80;99.90
52471;DHT22;38382;53.160;7.026;2023-02-21T10:39:48;10.70;99.90
52471;DHT22;38382;53.160;7.026;2023-02-21T10:42:33;10.80;99.90
52471;DHT22;38382;53.160;7.026;2023-02-21T10:45:02;10.80;99.90
52471;DHT22;38382;53.160;7.026;2023-02-21T10:50:11;10.80;99.90
52471;DHT22;38382;53.160;7.026;2023-02-21T10:52:46;10.80;99.90
52471;DHT22;38382;53.160;7.026;2023-02-21T10:55:19;10.80;99.90
52471;DHT22;38382;53.160;7.026;2023-02-21T10:57:50;10.80;99.90
52471;DHT22;38382;53.160;7.026;2023-02-21T11:05:51;10.70;99.90
52471;DHT22;38382;53.160;7.026;2023-02-21T11:08:38;10.70;99.90
52471;DHT22;38382;53.160;7.026;2023-02-21T11:11:05;10.70;99.90
52471;DHT22;38382;53.160;7.026;2023-02-21T11:13:31;10.70;99.90
52471;DHT22;38382;53.160;7.026;2023-02-21T11:16:30;10.70;99.90
52471;DHT22;38382;53.160;7.026;2023-02-21T11:19:06;10.70;99.90
52471;DHT22;38382;53.160;7.026;2023-02-21T11:21:32;10.60;99.90
52471;DHT22;38382;53.160;7.026;2023-02-21T11:24:01;10.70;99.90
52471;DHT22;38382;53.160;7.026;2023-02-21T11:26:46;10.70;99.90
52471;DHT22;38382;53.160;7.026;2023-02-21T11:29:21;10.80;99.90
52471;DHT22;38382;53.160;7.026;2023-02-21T11:31:51;10.80;99.90
52471;DHT22;38382;53.160;7.026;2023-02-21T11:34:17;10.90;99.90
52471;DHT22;38382;53.160;7.026;2023-02-21T11:36:46;10.80;99.90
52471;DHT22;38382;53.160;7.026;2023-02-21T11:39:33;10.90;99.90
52471;DHT22;38382;53.160;7.026;2023-02-21T11:42:00;10.90;99.90
52471;DHT22;38382;53.160;7.026;2023-02-21T11:50:06;10.90;99.90
52471;DHT22;38382;53.160;7.026;2023-02-21T11:53:14;10.90;99.90
52471;DHT22;38382;53.160;7.026;2023-02-21T11:58:42;10.90;99.90
52471;DHT22;38382;53.160;7.026;2023-02-21T12:01:16;10.90;99.90
52471;DHT22;38382;53.160;7.026;2023-02-21T12:10:18;10.90;99.90
52471;DHT22;38382;53.160;7.026;2023-02-21T12:24:29;11.00;99.90
52471;DHT22;38382;53.160;7.026;2023-02-21T12:32:47;11.10;99.90
52471;DHT22;38382;53.160;7.026;2023-02-21T12:35:44;11.20;99.90
52471;DHT22;38382;53.160;7.026;2023-02-21T12:41:29;11.20;99.90
52471;DHT22;38382;53.160;7.026;2023-02-21T12:46:57;11.20;99.90
52471;DHT22;38382;53.160;7.026;2023-02-21T12:49:42;11.20;99.90
52471;DHT22;38382;53.160;7.026;2023-02-21T12:55:26;11.20;99.90
52471;DHT22;38382;53.160;7.026;2023-02-21T12:58:17;11.20;99.90
52471;DHT22;38382;53.160;7.026;2023-02-21T13:00:48;11.20;99.90
52471;DHT22;38382;53.160;7.026;2023-02-21T13:03:54;11.20;99.90
52471;DHT22;38382;53.160;7.026;2023-02-21T13:09:34;11.10;99.90
52471;DHT22;38382;53.160;7.026;2023-02-21T13:12:20;11.10;99.90
52471;DHT22;38382;53.160;7.026;2023-02-21T13:14:54;11.10;99.90
52471;DHT22;38382;53.160;7.026;2023-02-21T13:17:21;11.00;99.90
52471;DHT22;38382;53.160;7.026;2023-02-21T13:20:06;11.00;99.90
52471;DHT22;38382;53.160;7.026;2023-02-21T13:22:52;11.00;99.90
52471;DHT22;38382;53.160;7.026;2023-02-21T13:25:52;11.00;99.90
52471;DHT22;38382;53.160;7.026;2023-02-21T13:28:28;11.00;99.90
52471;DHT22;38382;53.160;7.026;2023-02-21T13:31:00;11.00;99.90
52471;DHT22;38382;53.160;7.026;2023-02-21T13:33:39;11.10;99.90
52471;DHT22;38382;53.160;7.026;2023-02-21T13:41:47;11.00;99.90
52471;DHT22;38382;53.160;7.026;2023-02-21T13:44:23;11.00;99.90
52471;DHT22;38382;53.160;7.026;2023-02-21T13:57:39;11.10;99.90
52471;DHT22;38382;53.160;7.026;2023-02-21T14:11:14;11.00;99.90
52471;DHT22;38382;53.160;7.026;2023-02-21T14:13:53;11.00;99.90
52471;DHT22;38382;53.160;7.026;2023-02-21T14:16:33;11.00;99.90
52471;DHT22;38382;53.160;7.026;2023-02-21T14:19:16;10.90;99.90
52471;DHT22;38382;53.160;7.026;2023-02-21T14:22:28;10.90;99.90
52471;DHT22;38382;53.160;7.026;2023-02-21T14:25:24;10.90;99.90
52471;DHT22;38382;53.160;7.026;2023-02-21T14:27:51;10.80;99.90
52471;DHT22;38382;53.160;7.026;2023-02-21T14:30:27;10.70;99.90
52471;DHT22;38382;53.160;7.026;2023-02-21T14:32:56;10.70;99.90
52471;DHT22;38382;53.160;7.026;2023-02-21T14:35:36;10.70;99.90
52471;DHT22;38382;53.160;7.026;2023-02-21T14:38:05;10.70;99.90
52471;DHT22;38382;53.160;7.026;2023-02-21T14:58:10;10.50;99.90
52471;DHT22;38382;53.160;7.026;2023-02-21T15:01:04;10.50;99.90
52471;DHT22;38382;53.160;7.026;2023-02-21T15:06:35;10.40;99.90
52471;DHT22;38382;53.160;7.026;2023-02-21T15:09:16;10.30;99.90
52471;DHT22;38382;53.160;7.026;2023-02-21T15:11:42;10.30;99.90
52471;DHT22;38382;53.160;7.026;2023-02-21T15:14:18;10.30;99.90
52471;DHT22;38382;53.160;7.026;2023-02-21T15:16:59;10.30;99.90
52471;DHT22;38382;53.160;7.026;2023-02-21T15:19:27;10.20;99.90
52471;DHT22;38382;53.160;7.026;2023-02-21T15:27:23;10.10;99.90
52471;DHT22;38382;53.160;7.026;2023-02-21T15:32:29;10.10;99.90
52471;DHT22;38382;53.160;7.026;2023-02-21T15:34:54;10.10;99.90
52471;DHT22;38382;53.160;7.026;2023-02-21T15:37:23;10.10;99.90
52471;DHT22;38382;53.160;7.026;2023-02-21T15:39:57;10.10;99.90
52471;DHT22;38382;53.160;7.026;2023-02-21T15:42:24;10.10;99.90
52471;DHT22;38382;53.160;7.026;2023-02-21T15:44:57;10.10;99.90
52471;DHT22;38382;53.160;7.026;2023-02-21T15:47:25;10.10;99.90
52471;DHT22;38382;53.160;7.026;2023-02-21T15:50:02;10.00;99.90
52471;DHT22;38382;53.160;7.026;2023-02-21T15:52:38;10.00;99.90
52471;DHT22;38382;53.160;7.026;2023-02-21T15:57:40;10.00;99.90
52471;DHT22;38382;53.160;7.026;2023-02-21T16:02:51;10.00;99.90
52471;DHT22;38382;53.160;7.026;2023-02-21T16:05:26;9.90;99.90
52471;DHT22;38382;53.160;7.026;2023-02-21T16:07:53;9.90;99.90
52471;DHT22;38382;53.160;7.026;2023-02-21T16:10:22;9.90;99.90
52471;DHT22;38382;53.160;7.026;2023-02-21T16:12:59;9.90;99.90
52471;DHT22;38382;53.160;7.026;2023-02-21T16:15:33;9.90;99.90
52471;DHT22;38382;53.160;7.026;2023-02-21T16:18:09;9.80;99.90
52471;DHT22;38382;53.160;7.026;2023-02-21T16:20:37;9.80;99.90
52471;DHT22;38382;53.160;7.026;2023-02-21T16:23:25;9.80;99.90
52471;DHT22;38382;53.160;7.026;2023-02-21T16:26:02;9.70;99.90
52471;DHT22;38382;53.160;7.026;2023-02-21T16:28:45;9.80;99.90
52471;DHT22;38382;53.160;7.026;2023-02-21T16:31:16;9.70;99.90
52471;DHT22;38382;53.160;7.026;2023-02-21T16:33:49;9.70;99.90
52471;DHT22;38382;53.160;7.026;2023-02-21T16:36:25;9.70;99.90
52471;DHT22;38382;53.160;7.026;2023-02-21T16:38:53;9.70;99.90
52471;DHT22;38382;53.160;7.026;2023-02-21T16:41:19;9.60;99.90
52471;DHT22;38382;53.160;7.026;2023-02-21T16:43:45;9.70;99.90
52471;DHT22;38382;53.160;7.026;2023-02-21T16:46:11;9.60;99.90
52471;DHT22;38382;53.160;7.026;2023-02-21T16:48:37;9.60;99.90
52471;DHT22;38382;53.160;7.026;2023-02-21T16:51:06;9.60;99.90
52471;DHT22;38382;53.160;7.026;2023-02-21T16:53:32;9.60;99.90
52471;DHT22;38382;53.160;7.026;2023-02-21T16:55:59;9.60;99.90
52471;DHT22;38382;53.160;7.026;2023-02-21T16:58:31;9.60;99.90
52471;DHT22;38382;53.160;7.026;2023-02-21T17:01:00;9.50;99.90
52471;DHT22;38382;53.160;7.026;2023-02-21T17:03:27;9.50;99.90
52471;DHT22;38382;53.160;7.026;2023-02-21T17:05:54;9.50;99.90
52471;DHT22;38382;53.160;7.026;2023-02-21T17:08:20;9.50;99.90
52471;DHT22;38382;53.160;7.026;2023-02-21T17:10:46;9.50;99.90
52471;DHT22;38382;53.160;7.026;2023-02-21T17:13:12;9.40;99.90
52471;DHT22;38382;53.160;7.026;2023-02-21T17:15:38;9.40;99.90
52471;DHT22;38382;53.160;7.026;2023-02-21T17:18:04;9.40;99.90
52471;DHT22;38382;53.160;7.026;2023-02-21T17:20:29;9.40;99.90
52471;DHT22;38382;53.160;7.026;2023-02-21T17:22:55;9.40;99.90
52471;DHT22;38382;53.160;7.026;2023-02-21T17:25:23;9.40;99.90
52471;DHT22;38382;53.160;7.026;2023-02-21T17:27:50;9.40;99.90
52471;DHT22;38382;53.160;7.026;2023-02-21T17:30:17;9.40;99.90
52471;DHT22;38382;53.160;7.026;2023-02-21T17:32:43;9.30;99.90
52471;DHT22;38382;53.160;7.026;2023-02-21T17:35:14;9.30;99.90
52471;DHT22;38382;53.160;7.026;2023-02-21T17:37:42;9.30;99.90
52471;DHT22;38382;53.160;7.026;2023-02-21T17:40:09;9.30;99.90
52471;DHT22;38382;53.160;7.026;2023-02-21T17:42:53;9.30;99.90
52471;DHT22;38382;53.160;7.026;2023-02-21T17:45:24;9.30;99.90
52471;DHT22;38382;53.160;7.026;2023-02-21T17:47:51;9.20;99.90
52471;DHT22;38382;53.160;7.026;2023-02-21T17:50:19;9.20;99.90
52471;DHT22;38382;53.160;7.026;2023-02-21T17:52:45;9.20;99.90
52471;DHT22;38382;53.160;7.026;2023-02-21T17:55:20;9.30;99.90
52471;DHT22;38382;53.160;7.026;2023-02-21T17:57:49;9.50;99.90
52471;DHT22;38382;53.160;7.026;2023-02-21T18:00:19;9.20;99.90
52471;DHT22;38382;53.160;7.026;2023-02-21T18:02:48;9.20;99.90
52471;DHT22;38382;53.160;7.026;2023-02-21T18:05:16;9.20;99.90
52471;DHT22;38382;53.160;7.026;2023-02-21T18:07:50;9.20;99.90
52471;DHT22;38382;53.160;7.026;2023-02-21T18:10:18;9.20;99.90
52471;DHT22;38382;53.160;7.026;2023-02-21T18:12:44;9.20;99.90
52471;DHT22;38382;53.160;7.026;2023-02-21T18:15:14;9.20;99.90
52471;DHT22;38382;53.160;7.026;2023-02-21T18:17:40;9.00;99.90
52471;DHT22;38382;53.160;7.026;2023-02-21T18:20:07;9.10;99.90
52471;DHT22;38382;53.160;7.026;2023-02-21T18:22:34;9.10;99.90
52471;DHT22;38382;53.160;7.026;2023-02-21T18:25:00;9.10;99.90
52471;DHT22;38382;53.160;7.026;2023-02-21T18:27:29;9.10;99.90
52471;DHT22;38382;53.160;7.026;2023-02-21T18:29:55;9.10;99.90
52471;DHT22;38382;53.160;7.026;2023-02-21T18:32:25;9.10;99.90
52471;DHT22;38382;53.160;7.026;2023-02-21T18:34:51;9.00;99.90
52471;DHT22;38382;53.160;7.026;2023-02-21T18:37:19;9.00;99.90
52471;DHT22;38382;53.160;7.026;2023-02-21T18:39:49;9.00;99.90
52471;DHT22;38382;53.160;7.026;2023-02-21T18:42:15;9.00;99.90